Rosemary Beach, FL (32461)

8:50 PM CDT on March 28, 2015 (GMT -0500)
Northwest Florida Beaches International | | Change Station
CLOSE
Current Station
Airport
Location: Panama City,
Elevation: 69 ft
Nearby Weather Stations

Elev 69 ft 30.36 °N, 85.80 °W | Updated 57 minutes ago

Clear
Clear
52 °F
Feels Like 52 °F
N
6
Wind Variable Wind from NNW

Today
High -- | Low -- °F
--% Chance of Precip.
Yesterday
High -- | Low -- °F
Precip. -- in
6:38 AM 7:00 PM
Waxing Gibbous, 67% visible
Pressure 30.24 in
Visibility 10.0 miles
Clouds Clear
Dew Point 37 °F
Humidity 57%
Rainfall 0.00 in
Snow Depth Not available.
UV 0 out of 12
Pollen 10.00 out of 12
Air Quality Not available.
Flu Activity Not available.
METAR KECP 290053Z 34005KT 10SM CLR 11/03 A3020 RMK AO2 SLP238 T01110028

More Conditions Fewer Conditions

Pressure 30.24 in
Visibility 10.0 miles
Clouds Clear
Dew Point 37 °F
Humidity 57%
Rainfall 0.00 in
Snow Depth Not available.
UV 0 out of 12
Pollen 10.00 out of 12
Air Quality Not available.
Flu Activity Not available.
METAR KECP 290053Z 34005KT 10SM CLR 11/03 A3020 RMK AO2 SLP238 T01110028

More Conditions Fewer Conditions

10-Day Weather Forecast

Almanac

Astronomy

Mar. 28, 2015 Rise Set
Actual Time
Civil Twilight
Nautical Twilight
Astronomical Twilight
Moon
Length of Visible Light
Length of Day
Tomorrow will be .
, % of the Moon is Illuminated

Today's Extremes

State Highs State Lows

Community

WunderPhotos

Upload Photos

1,809,149 photos uploaded!

WunderBlogs® & News

Nearby

Air Quality

  Air Quality AQ Index Pollutant
Not available.

Snow Depth

Station Depth Elevation

Earthquake Activity

City Distance Mag. Time & Date
Minimum magnitude displayed is 2.5.

Coastal Water Temperatures

Place Temperature

Stations

Nearby Weather Stations

Station Location Temp. Windchill Dew Point Humidity Wind Precip. Elev Updated Type